Time;durP1;ratioP1;P1;durP2;ratioP2;P2;SDS_P1;SDS_P2;PMS_P1;PMS_P2;Temp;Humidity;BMP_temperature;BMP_pressure;BME280_temperature;BME280_humidity;BME280_pressure;Samples;Min_cycle;Max_cycle;Signal;HPM_P1;HPM_P2
2023/07/17 00:01:50;;;;;;;5.70;2.37;;;;;;;;;;5042533;28;20318;-66
2023/07/17 00:04:18;;;;;;;4.57;1.90;;;;;;;;;;5040053;28;20649;-68
2023/07/17 00:06:46;;;;;;;4.57;1.97;;;;;;;;;;5039814;28;20213;-66
2023/07/17 00:09:15;;;;;;;3.50;1.97;;;;;;;;;;5039604;28;20661;-66
2023/07/17 00:11:43;;;;;;;4.50;2.20;;;;;;;;;;5039775;28;20314;-67
2023/07/17 00:14:11;;;;;;;3.50;2.00;;;;;;;;;;5039773;28;20235;-67
2023/07/17 00:16:38;;;;;;;7.60;2.10;;;;;;;;;;5039501;28;20747;-67
2023/07/17 00:19:06;;;;;;;4.60;2.27;;;;;;;;;;5039626;28;20267;-67
2023/07/17 00:21:34;;;;;;;3.90;2.20;;;;;;;;;;5039447;28;20314;-67
2023/07/17 00:24:02;;;;;;;5.57;2.00;;;;;;;;;;5039445;28;20205;-67
2023/07/17 00:26:31;;;;;;;3.73;2.03;;;;;;;;;;5039625;28;20215;-67
2023/07/17 00:29:14;;;;;;;2.73;1.90;;;;;;;;;;5039565;28;20214;-67
2023/07/17 00:31:41;;;;;;;7.07;2.60;;;;;;;;;;5039043;28;20229;-67
2023/07/17 00:34:09;;;;;;;9.33;2.40;;;;;;;;;;5039119;28;20240;-67
2023/07/17 00:36:37;;;;;;;3.20;1.87;;;;;;;;;;5039341;28;20215;-68
2023/07/17 00:39:05;;;;;;;2.60;1.97;;;;;;;;;;5038783;28;20216;-67
2023/07/17 00:41:34;;;;;;;4.20;3.10;;;;;;;;;;5045872;28;20260;-68
2023/07/17 00:44:01;;;;;;;35.40;24.10;;;;;;;;;;5039219;28;20213;-68
2023/07/17 00:46:29;;;;;;;7.53;4.70;;;;;;;;;;5039245;28;20211;-68
2023/07/17 00:48:57;;;;;;;4.63;2.23;;;;;;;;;;5039088;28;20217;-68
2023/07/17 00:51:25;;;;;;;7.37;2.60;;;;;;;;;;5038985;28;20226;-68
2023/07/17 00:53:53;;;;;;;7.10;2.20;;;;;;;;;;5052058;28;20224;-69
2023/07/17 00:56:21;;;;;;;4.17;2.43;;;;;;;;;;5039034;28;20206;-68
2023/07/17 00:58:50;;;;;;;3.47;2.63;;;;;;;;;;5039946;28;20297;-68
2023/07/17 01:01:18;;;;;;;4.47;2.60;;;;;;;;;;5049539;28;20234;-68
2023/07/17 01:03:47;;;;;;;5.97;2.67;;;;;;;;;;5038825;28;20232;-68
2023/07/17 01:06:14;;;;;;;6.90;2.50;;;;;;;;;;5038742;28;20208;-68
2023/07/17 01:08:42;;;;;;;3.57;2.23;;;;;;;;;;5038431;28;20260;-68
2023/07/17 01:11:10;;;;;;;6.50;2.37;;;;;;;;;;5038328;28;20233;-68
2023/07/17 01:13:43;;;;;;;8.43;2.50;;;;;;;;;;5038346;28;20252;-68
2023/07/17 01:16:13;;;;;;;4.70;2.40;;;;;;;;;;5038719;28;20666;-69
2023/07/17 01:18:41;;;;;;;2.80;2.17;;;;;;;;;;5038644;28;20211;-68
2023/07/17 01:21:10;;;;;;;5.23;2.20;;;;;;;;;;5038370;28;20234;-68
2023/07/17 01:23:39;;;;;;;5.50;2.13;;;;;;;;;;5038507;28;20209;-68
2023/07/17 01:26:13;;;;;;;4.67;2.13;;;;;;;;;;5038296;28;20212;-68
2023/07/17 01:28:41;;;;;;;3.10;2.37;;;;;;;;;;5038473;28;20297;-68
2023/07/17 01:31:10;;;;;;;4.83;2.60;;;;;;;;;;5038317;28;20236;-68
2023/07/17 01:33:38;;;;;;;2.90;2.13;;;;;;;;;;5037972;28;20681;-68
2023/07/17 01:36:06;;;;;;;4.77;2.40;;;;;;;;;;5038119;28;20293;-69
2023/07/17 01:38:34;;;;;;;4.60;2.10;;;;;;;;;;5038286;28;20208;-69
2023/07/17 01:41:03;;;;;;;4.33;2.30;;;;;;;;;;5047626;28;20224;-69
2023/07/17 01:43:31;;;;;;;5.80;2.43;;;;;;;;;;5038199;28;20210;-69
2023/07/17 01:45:59;;;;;;;3.80;2.27;;;;;;;;;;5038148;28;20272;-69
2023/07/17 01:48:26;;;;;;;6.37;2.47;;;;;;;;;;5038102;28;20205;-69
2023/07/17 01:50:54;;;;;;;3.50;2.30;;;;;;;;;;5037912;28;20234;-69
2023/07/17 01:53:22;;;;;;;3.87;2.33;;;;;;;;;;5047319;28;20235;-69
2023/07/17 01:55:50;;;;;;;4.23;2.40;;;;;;;;;;5047748;28;20209;-69
2023/07/17 01:58:19;;;;;;;6.47;2.60;;;;;;;;;;5037757;28;20634;-69
2023/07/17 02:00:46;;;;;;;4.90;2.80;;;;;;;;;;5047017;28;20730;-69
2023/07/17 02:03:14;;;;;;;2.97;2.60;;;;;;;;;;5037853;28;20201;-69
2023/07/17 02:05:42;;;;;;;4.90;2.80;;;;;;;;;;5037734;28;20214;-69
2023/07/17 02:08:10;;;;;;;4.57;3.00;;;;;;;;;;5037634;28;20312;-69
2023/07/17 02:10:40;;;;;;;2.97;2.20;;;;;;;;;;5037745;28;20226;-69
2023/07/17 02:13:08;;;;;;;3.50;2.20;;;;;;;;;;5037480;28;20615;-69
2023/07/17 02:15:37;;;;;;;4.03;2.63;;;;;;;;;;5037870;28;20218;-69
2023/07/17 02:18:05;;;;;;;4.60;2.43;;;;;;;;;;5041777;28;20618;-69
2023/07/17 02:20:33;;;;;;;7.23;2.60;;;;;;;;;;5044104;28;20231;-69
2023/07/17 02:23:01;;;;;;;3.93;2.37;;;;;;;;;;5043996;28;20299;-69
2023/07/17 02:25:29;;;;;;;3.27;2.20;;;;;;;;;;5043989;28;20216;-69
2023/07/17 02:27:57;;;;;;;4.13;2.43;;;;;;;;;;5044309;28;20214;-69
2023/07/17 02:30:25;;;;;;;5.07;2.63;;;;;;;;;;5044251;28;20224;-69
2023/07/17 02:32:54;;;;;;;5.13;2.80;;;;;;;;;;5044005;28;20232;-69
2023/07/17 02:35:21;;;;;;;4.17;2.50;;;;;;;;;;5044324;28;20319;-69
2023/07/17 02:37:49;;;;;;;5.77;2.67;;;;;;;;;;5051002;28;20728;-69
2023/07/17 02:40:18;;;;;;;4.10;2.80;;;;;;;;;;5063449;28;20232;-69
2023/07/17 02:42:46;;;;;;;4.97;2.73;;;;;;;;;;5044249;28;20208;-69
2023/07/17 02:45:14;;;;;;;5.73;2.30;;;;;;;;;;5044135;28;20204;-69
2023/07/17 02:47:42;;;;;;;6.20;2.53;;;;;;;;;;5043689;28;20637;-69
2023/07/17 02:50:11;;;;;;;5.00;2.73;;;;;;;;;;5049176;28;20237;-69
2023/07/17 02:52:39;;;;;;;3.77;2.70;;;;;;;;;;5047311;28;20563;-69
2023/07/17 02:55:07;;;;;;;3.87;2.47;;;;;;;;;;5043803;28;20240;-69
2023/07/17 02:57:35;;;;;;;4.10;2.50;;;;;;;;;;5043774;28;20613;-69
2023/07/17 03:00:08;;;;;;;6.23;2.53;;;;;;;;;;5046426;28;20233;-69
2023/07/17 03:02:36;;;;;;;5.63;2.40;;;;;;;;;;5043827;28;20740;-69
2023/07/17 03:05:08;;;;;;;6.83;3.07;;;;;;;;;;5043980;28;20230;-69
2023/07/17 03:07:39;;;;;;;3.20;2.60;;;;;;;;;;5054316;28;20640;-68
2023/07/17 03:10:07;;;;;;;7.83;2.70;;;;;;;;;;5043660;28;20224;-68
2023/07/17 03:12:36;;;;;;;5.97;3.00;;;;;;;;;;5043753;28;20235;-68
2023/07/17 03:15:05;;;;;;;4.53;2.50;;;;;;;;;;5043854;28;20290;-68
2023/07/17 03:17:33;;;;;;;4.23;2.60;;;;;;;;;;5043938;28;20218;-68
2023/07/17 03:20:01;;;;;;;5.43;2.40;;;;;;;;;;5043596;28;20239;-68
2023/07/17 03:22:29;;;;;;;4.03;2.20;;;;;;;;;;5043683;28;20678;-68
2023/07/17 03:24:58;;;;;;;2.60;2.40;;;;;;;;;;5043620;28;20204;-66
2023/07/17 03:27:26;;;;;;;6.37;2.73;;;;;;;;;;5043858;28;20211;-68
2023/07/17 03:29:53;;;;;;;4.43;2.77;;;;;;;;;;5039992;28;20266;-68
2023/07/17 03:32:21;;;;;;;4.60;2.80;;;;;;;;;;5040282;28;20209;-67
2023/07/17 03:34:49;;;;;;;5.43;2.57;;;;;;;;;;5040275;28;20224;-68
2023/07/17 03:37:17;;;;;;;4.43;2.90;;;;;;;;;;5040063;28;20242;-68
2023/07/17 03:39:44;;;;;;;4.77;2.60;;;;;;;;;;5047929;28;20280;-69
2023/07/17 03:42:14;;;;;;;6.13;2.93;;;;;;;;;;5048730;28;20219;-69
2023/07/17 03:44:42;;;;;;;3.70;2.40;;;;;;;;;;5060002;28;20227;-69
2023/07/17 03:47:10;;;;;;;3.77;2.70;;;;;;;;;;5066461;28;20208;-68
2023/07/17 03:49:38;;;;;;;5.33;2.90;;;;;;;;;;5067107;28;20544;-68
2023/07/17 03:52:06;;;;;;;3.83;2.80;;;;;;;;;;5067459;28;20199;-69
2023/07/17 03:54:34;;;;;;;5.53;2.83;;;;;;;;;;5069265;28;20254;-69
2023/07/17 03:57:02;;;;;;;5.20;2.80;;;;;;;;;;5066702;28;20204;-69
2023/07/17 03:59:46;;;;;;;4.00;2.90;;;;;;;;;;5067417;28;20283;-69
2023/07/17 04:02:14;;;;;;;3.07;2.87;;;;;;;;;;5069813;28;20272;-68
2023/07/17 04:04:45;;;;;;;5.23;2.40;;;;;;;;;;5059670;28;20193;-68
2023/07/17 04:07:13;;;;;;;5.17;3.13;;;;;;;;;;5068629;28;20233;-68
2023/07/17 04:09:41;;;;;;;4.90;2.80;;;;;;;;;;5059721;28;20289;-68
2023/07/17 04:12:09;;;;;;;5.60;3.13;;;;;;;;;;5048431;28;20214;-68
2023/07/17 04:14:38;;;;;;;5.87;3.10;;;;;;;;;;5039668;28;20228;-68
2023/07/17 04:17:06;;;;;;;4.93;3.40;;;;;;;;;;5039852;28;20218;-68
2023/07/17 04:19:34;;;;;;;5.57;3.27;;;;;;;;;;5042092;28;20196;-68
2023/07/17 04:22:02;;;;;;;7.07;3.00;;;;;;;;;;5041744;28;20214;-68
2023/07/17 04:24:30;;;;;;;6.33;3.03;;;;;;;;;;5039085;28;20732;-68
2023/07/17 04:26:58;;;;;;;9.23;3.57;;;;;;;;;;5062342;28;20229;-68
2023/07/17 04:29:26;;;;;;;4.07;2.90;;;;;;;;;;5063547;28;20259;-68
2023/07/17 04:31:55;;;;;;;5.23;3.10;;;;;;;;;;5065742;28;20578;-67
2023/07/17 04:34:23;;;;;;;9.40;3.27;;;;;;;;;;5051801;28;20693;-68
2023/07/17 04:36:51;;;;;;;4.50;3.00;;;;;;;;;;5050409;28;20200;-66
2023/07/17 04:39:19;;;;;;;7.13;3.50;;;;;;;;;;5058610;28;20227;-68
2023/07/17 04:41:47;;;;;;;4.83;3.53;;;;;;;;;;5045869;28;20717;-66
2023/07/17 04:44:14;;;;;;;4.37;2.87;;;;;;;;;;5039433;28;20217;-66
2023/07/17 04:46:43;;;;;;;5.27;2.67;;;;;;;;;;5038997;28;20254;-68
2023/07/17 04:49:12;;;;;;;4.43;2.90;;;;;;;;;;5039357;28;20243;-68
2023/07/17 04:51:40;;;;;;;4.60;3.10;;;;;;;;;;5038725;28;20620;-66
2023/07/17 04:54:08;;;;;;;6.90;2.60;;;;;;;;;;5047654;28;20286;-69
2023/07/17 04:56:36;;;;;;;5.90;2.87;;;;;;;;;;5038715;28;20234;-68
2023/07/17 04:59:04;;;;;;;3.00;2.67;;;;;;;;;;5042386;28;20214;-68
2023/07/17 05:01:31;;;;;;;5.90;3.27;;;;;;;;;;5043496;28;20694;-69
2023/07/17 05:03:59;;;;;;;6.23;3.57;;;;;;;;;;5038716;28;20211;-66
2023/07/17 05:06:29;;;;;;;6.63;3.60;;;;;;;;;;5040141;28;20648;-69
2023/07/17 05:08:57;;;;;;;4.83;4.10;;;;;;;;;;5037811;28;20214;-69
2023/07/17 05:11:28;;;;;;;6.97;3.60;;;;;;;;;;5038425;28;20227;-68
2023/07/17 05:13:56;;;;;;;5.43;3.30;;;;;;;;;;5038826;28;20212;-66
2023/07/17 05:16:24;;;;;;;5.13;3.30;;;;;;;;;;5038444;28;20237;-67
2023/07/17 05:18:51;;;;;;;5.43;3.20;;;;;;;;;;5037313;28;20692;-67
2023/07/17 05:21:19;;;;;;;7.23;3.17;;;;;;;;;;5046204;28;20237;-66
2023/07/17 05:23:49;;;;;;;3.83;3.00;;;;;;;;;;5043181;28;20659;-67
2023/07/17 05:26:16;;;;;;;4.77;3.17;;;;;;;;;;5041003;28;20329;-66
2023/07/17 05:28:48;;;;;;;5.00;3.27;;;;;;;;;;5055671;28;20216;-66
2023/07/17 05:31:16;;;;;;;5.60;2.90;;;;;;;;;;5038479;28;20234;-65
2023/07/17 05:33:45;;;;;;;4.90;2.90;;;;;;;;;;5038091;28;20677;-67
2023/07/17 05:36:12;;;;;;;5.07;2.80;;;;;;;;;;5037921;28;20232;-68
2023/07/17 05:38:40;;;;;;;6.53;2.73;;;;;;;;;;5038082;28;20208;-67
2023/07/17 05:41:09;;;;;;;5.27;3.10;;;;;;;;;;5043531;28;20220;-67
2023/07/17 05:43:37;;;;;;;5.33;3.27;;;;;;;;;;5038500;28;20412;-67
2023/07/17 05:46:05;;;;;;;5.70;2.80;;;;;;;;;;5038412;28;20236;-67
2023/07/17 05:48:33;;;;;;;4.17;3.17;;;;;;;;;;5044626;28;20294;-67
2023/07/17 05:51:00;;;;;;;4.67;2.87;;;;;;;;;;5057650;28;20596;-67
2023/07/17 05:53:28;;;;;;;6.30;3.40;;;;;;;;;;5057298;28;20214;-67
2023/07/17 05:55:56;;;;;;;6.90;3.47;;;;;;;;;;5057810;28;20277;-67
2023/07/17 05:58:25;;;;;;;6.43;4.03;;;;;;;;;;5058027;28;20215;-67
2023/07/17 06:00:53;;;;;;;6.20;3.40;;;;;;;;;;5043086;28;20320;-67
2023/07/17 06:03:21;;;;;;;6.33;3.47;;;;;;;;;;5037719;28;20302;-67
2023/07/17 06:05:48;;;;;;;4.77;3.43;;;;;;;;;;5037577;28;20284;-67
2023/07/17 06:08:16;;;;;;;5.53;3.10;;;;;;;;;;5037599;28;20213;-67
2023/07/17 06:10:46;;;;;;;7.00;3.07;;;;;;;;;;5040757;28;20218;-69
2023/07/17 06:13:20;;;;;;;6.30;3.33;;;;;;;;;;5047592;28;20216;-66
2023/07/17 06:15:50;;;;;;;5.40;3.03;;;;;;;;;;5037504;28;20238;-70
2023/07/17 06:18:18;;;;;;;5.33;2.70;;;;;;;;;;5055068;28;20645;-70
2023/07/17 06:20:46;;;;;;;8.03;3.43;;;;;;;;;;5057363;28;20230;-67
2023/07/17 06:23:14;;;;;;;5.03;3.03;;;;;;;;;;5053896;28;20221;-69
2023/07/17 06:25:42;;;;;;;7.73;3.00;;;;;;;;;;5045334;28;20249;-67
2023/07/17 06:28:10;;;;;;;6.03;3.53;;;;;;;;;;5039560;28;20222;-68
2023/07/17 06:30:37;;;;;;;4.80;2.80;;;;;;;;;;5037711;28;20707;-68
2023/07/17 06:33:07;;;;;;;4.80;3.33;;;;;;;;;;5037381;28;20245;-67
2023/07/17 06:35:35;;;;;;;9.43;3.50;;;;;;;;;;5037705;28;20208;-68
2023/07/17 06:38:02;;;;;;;8.47;3.70;;;;;;;;;;5037644;28;20215;-66
2023/07/17 06:40:30;;;;;;;4.80;3.00;;;;;;;;;;5045460;28;20301;-66
2023/07/17 06:42:58;;;;;;;4.80;2.90;;;;;;;;;;5037360;28;20207;-67
2023/07/17 06:45:26;;;;;;;8.13;2.70;;;;;;;;;;5043949;28;20566;-67
2023/07/17 06:47:53;;;;;;;4.80;2.90;;;;;;;;;;5042552;28;20299;-66
2023/07/17 06:50:23;;;;;;;5.90;3.37;;;;;;;;;;5040225;28;20231;-66
2023/07/17 06:52:50;;;;;;;6.87;3.33;;;;;;;;;;5037007;28;20701;-65
2023/07/17 06:55:19;;;;;;;7.13;3.43;;;;;;;;;;5047168;28;20234;-66
2023/07/17 06:57:47;;;;;;;8.87;3.20;;;;;;;;;;5057006;28;20231;-68
2023/07/17 07:00:15;;;;;;;5.17;2.90;;;;;;;;;;5047957;28;20228;-67
2023/07/17 07:02:43;;;;;;;5.17;2.83;;;;;;;;;;5048833;28;20207;-67
2023/07/17 07:05:10;;;;;;;7.53;3.23;;;;;;;;;;5041944;28;20210;-66
2023/07/17 07:07:40;;;;;;;3.87;2.63;;;;;;;;;;5047007;28;20201;-66
2023/07/17 07:10:08;;;;;;;4.67;2.83;;;;;;;;;;5050312;28;20224;-65
2023/07/17 07:12:36;;;;;;;6.43;2.70;;;;;;;;;;5041125;28;20291;-69
2023/07/17 07:15:05;;;;;;;4.50;2.83;;;;;;;;;;5043854;28;20232;-68
2023/07/17 07:17:33;;;;;;;6.43;2.80;;;;;;;;;;5040328;28;20634;-65
2023/07/17 07:20:01;;;;;;;7.30;3.10;;;;;;;;;;5040377;28;20240;-66
2023/07/17 07:22:28;;;;;;;5.40;2.70;;;;;;;;;;5047822;28;20207;-65
2023/07/17 07:24:57;;;;;;;4.60;3.13;;;;;;;;;;5065888;28;20224;-65
2023/07/17 07:27:26;;;;;;;5.37;2.93;;;;;;;;;;5068676;28;20200;-65
2023/07/17 07:29:54;;;;;;;5.47;2.77;;;;;;;;;;5072230;28;20309;-64
2023/07/17 07:32:22;;;;;;;4.30;2.67;;;;;;;;;;5068808;28;20199;-64
2023/07/17 07:34:50;;;;;;;4.00;2.53;;;;;;;;;;5066758;28;20210;-64
2023/07/17 07:37:18;;;;;;;8.40;2.63;;;;;;;;;;5066396;28;20595;-66
2023/07/17 07:39:45;;;;;;;6.43;2.50;;;;;;;;;;5065237;28;20282;-66
2023/07/17 07:42:16;;;;;;;5.57;2.80;;;;;;;;;;5064700;28;20618;-65
2023/07/17 07:44:44;;;;;;;4.03;2.80;;;;;;;;;;5066141;28;20203;-66
2023/07/17 07:47:12;;;;;;;4.90;2.30;;;;;;;;;;5044273;28;20236;-65
2023/07/17 07:49:40;;;;;;;5.23;2.70;;;;;;;;;;5046821;28;20231;-66
2023/07/17 07:52:08;;;;;;;7.40;2.90;;;;;;;;;;5040076;28;20262;-68
2023/07/17 07:54:35;;;;;;;7.67;2.73;;;;;;;;;;5040011;28;20345;-66
2023/07/17 07:57:03;;;;;;;6.80;2.67;;;;;;;;;;5039661;28;20237;-66
2023/07/17 07:59:32;;;;;;;4.70;2.47;;;;;;;;;;5047093;28;20209;-66
2023/07/17 08:02:04;;;;;;;4.60;2.70;;;;;;;;;;5062449;28;20258;-66
2023/07/17 08:04:32;;;;;;;6.97;2.83;;;;;;;;;;5058050;28;20662;-66
2023/07/17 08:07:00;;;;;;;5.33;2.97;;;;;;;;;;5039506;28;20240;-66
2023/07/17 08:09:28;;;;;;;7.47;2.73;;;;;;;;;;5039592;28;20210;-66
2023/07/17 08:11:56;;;;;;;4.00;3.00;;;;;;;;;;5048308;28;20224;-66
2023/07/17 08:14:24;;;;;;;4.40;2.67;;;;;;;;;;5059116;28;20774;-66
2023/07/17 08:16:53;;;;;;;6.90;2.87;;;;;;;;;;5053202;28;20227;-66
2023/07/17 08:19:21;;;;;;;7.33;2.97;;;;;;;;;;5059571;28;20206;-68
2023/07/17 08:21:49;;;;;;;4.43;2.87;;;;;;;;;;5058458;28;20237;-68
2023/07/17 08:24:16;;;;;;;8.33;3.20;;;;;;;;;;5047169;28;20235;-68
2023/07/17 08:26:44;;;;;;;5.30;2.70;;;;;;;;;;5039495;28;20282;-66
2023/07/17 08:29:12;;;;;;;5.50;3.40;;;;;;;;;;5039306;28;20213;-66
2023/07/17 08:31:40;;;;;;;6.87;2.70;;;;;;;;;;5039323;28;20305;-65
2023/07/17 08:34:09;;;;;;;4.07;2.63;;;;;;;;;;5039078;28;20236;-66
2023/07/17 08:36:37;;;;;;;3.73;2.33;;;;;;;;;;5039344;28;20296;-66
2023/07/17 08:39:05;;;;;;;4.50;2.93;;;;;;;;;;5044731;28;20634;-65
2023/07/17 08:41:34;;;;;;;3.90;2.70;;;;;;;;;;5050951;28;20688;-65
2023/07/17 08:44:02;;;;;;;2.73;2.40;;;;;;;;;;5040296;28;20283;-65
2023/07/17 08:46:31;;;;;;;9.10;2.70;;;;;;;;;;5039207;28;20209;-65
2023/07/17 08:48:59;;;;;;;5.40;3.17;;;;;;;;;;5039037;28;20372;-66
2023/07/17 08:51:29;;;;;;;4.73;3.50;;;;;;;;;;5044979;28;20235;-66
2023/07/17 08:53:58;;;;;;;4.87;3.20;;;;;;;;;;5058726;28;20206;-66
2023/07/17 08:56:49;;;;;;;7.17;3.20;;;;;;;;;;5058575;28;20628;-65
2023/07/17 08:59:18;;;;;;;5.73;2.50;;;;;;;;;;5056769;28;20244;-65
2023/07/17 09:01:46;;;;;;;3.10;2.50;;;;;;;;;;5044879;28;20234;-65
2023/07/17 09:04:14;;;;;;;4.57;3.10;;;;;;;;;;5046176;28;20660;-65
2023/07/17 09:06:43;;;;;;;4.07;2.97;;;;;;;;;;5058519;28;20205;-64
2023/07/17 09:09:11;;;;;;;4.37;2.73;;;;;;;;;;5058379;28;20224;-64
2023/07/17 09:11:39;;;;;;;5.17;3.53;;;;;;;;;;5058072;28;20293;-64
2023/07/17 09:14:08;;;;;;;5.47;3.07;;;;;;;;;;5061930;28;20201;-65
2023/07/17 09:16:36;;;;;;;3.93;3.07;;;;;;;;;;5067444;28;20292;-64
2023/07/17 09:19:04;;;;;;;6.40;3.20;;;;;;;;;;5066307;28;20225;-63
2023/07/17 09:21:32;;;;;;;6.27;2.97;;;;;;;;;;5051065;28;20234;-64
2023/07/17 09:24:01;;;;;;;5.53;3.30;;;;;;;;;;5038040;28;20223;-64
2023/07/17 09:26:30;;;;;;;3.93;3.03;;;;;;;;;;5037928;28;20219;-64
2023/07/17 09:28:58;;;;;;;6.33;3.27;;;;;;;;;;5038179;28;20231;-65
2023/07/17 09:31:27;;;;;;;3.67;2.80;;;;;;;;;;5038080;28;20298;-64
2023/07/17 09:33:55;;;;;;;6.80;3.07;;;;;;;;;;5037891;28;20255;-63
2023/07/17 09:36:23;;;;;;;15.30;3.30;;;;;;;;;;5038307;28;20220;-64
2023/07/17 09:38:51;;;;;;;4.57;2.83;;;;;;;;;;5037845;28;20234;-63
2023/07/17 09:41:23;;;;;;;9.60;3.53;;;;;;;;;;5043455;28;20228;-64
2023/07/17 09:43:52;;;;;;;5.00;2.67;;;;;;;;;;5044239;28;20204;-64
2023/07/17 09:46:20;;;;;;;5.87;3.00;;;;;;;;;;5048037;28;20212;-65
2023/07/17 09:48:48;;;;;;;6.97;3.27;;;;;;;;;;5038147;28;20202;-64
2023/07/17 09:51:17;;;;;;;8.13;3.00;;;;;;;;;;5037974;28;20325;-65
2023/07/17 09:53:46;;;;;;;9.73;3.23;;;;;;;;;;5037788;28;20215;-63
2023/07/17 09:56:15;;;;;;;7.23;3.67;;;;;;;;;;5037553;28;20208;-63
2023/07/17 09:58:46;;;;;;;8.37;4.00;;;;;;;;;;5045612;28;20218;-64
2023/07/17 10:01:16;;;;;;;6.10;3.60;;;;;;;;;;5042004;28;20659;-63
2023/07/17 10:03:46;;;;;;;4.83;3.23;;;;;;;;;;5040478;28;20261;-65
2023/07/17 10:06:14;;;;;;;13.67;3.20;;;;;;;;;;5037584;28;20209;-64
2023/07/17 10:08:44;;;;;;;5.13;3.27;;;;;;;;;;5037210;28;20656;-65
2023/07/17 10:11:12;;;;;;;7.57;3.10;;;;;;;;;;5038378;28;20277;-65
2023/07/17 10:13:40;;;;;;;5.22;3.10;;;;;;;;;;5037648;28;20266;-66
2023/07/17 10:16:09;;;;;;;8.03;2.90;;;;;;;;;;5055883;28;20214;-64
2023/07/17 10:18:46;;;;;;;5.37;3.67;;;;;;;;;;5043758;28;20225;-64
2023/07/17 10:21:14;;;;;;;7.47;2.97;;;;;;;;;;5042549;28;20224;-64
2023/07/17 10:23:43;;;;;;;6.90;3.50;;;;;;;;;;5040655;28;20273;-64
2023/07/17 10:26:11;;;;;;;9.43;3.00;;;;;;;;;;5041847;28;20563;-63
2023/07/17 10:28:40;;;;;;;6.37;3.43;;;;;;;;;;5037289;28;20261;-63
2023/07/17 10:31:11;;;;;;;6.03;3.30;;;;;;;;;;5037416;28;20704;-63
2023/07/17 10:33:39;;;;;;;6.60;2.67;;;;;;;;;;5037175;28;20272;-63
2023/07/17 10:36:13;;;;;;;5.53;3.37;;;;;;;;;;5047502;28;20219;-64
2023/07/17 10:38:42;;;;;;;5.90;3.07;;;;;;;;;;5038292;28;20316;-63
2023/07/17 10:41:24;;;;;;;4.63;2.77;;;;;;;;;;5053835;28;20257;-64
2023/07/17 10:43:53;;;;;;;4.50;2.93;;;;;;;;;;5061017;28;20308;-62
2023/07/17 10:46:42;;;;;;;3.97;2.87;;;;;;;;;;5041140;28;20697;-63
2023/07/17 10:49:10;;;;;;;6.60;2.90;;;;;;;;;;5041445;28;20233;-63
2023/07/17 10:51:42;;;;;;;7.37;3.67;;;;;;;;;;5041002;28;20285;-63
2023/07/17 10:54:09;;;;;;;6.07;3.00;;;;;;;;;;5040935;28;20292;-63
2023/07/17 10:56:37;;;;;;;3.43;2.50;;;;;;;;;;5041225;28;20205;-63
2023/07/17 10:59:05;;;;;;;6.70;3.27;;;;;;;;;;5044353;28;20237;-63
2023/07/17 11:01:33;;;;;;;4.85;3.17;;;;;;;;;;5048899;28;20268;-63
2023/07/17 11:04:03;;;;;;;5.83;3.00;;;;;;;;;;5041015;28;20243;-63
2023/07/17 11:06:31;;;;;;;5.05;2.97;;;;;;;;;;5041224;28;20222;-63
2023/07/17 11:09:00;;;;;;;5.07;3.27;;;;;;;;;;5040475;28;20208;-62
2023/07/17 11:11:29;;;;;;;4.93;2.90;;;;;;;;;;5040716;28;20224;-62
2023/07/17 11:14:00;;;;;;;7.73;2.83;;;;;;;;;;5040798;28;20211;-62
2023/07/17 11:16:28;;;;;;;4.83;3.03;;;;;;;;;;5046591;28;20205;-62
2023/07/17 11:18:57;;;;;;;4.17;2.47;;;;;;;;;;5047685;28;20230;-61
2023/07/17 11:21:27;;;;;;;4.50;3.00;;;;;;;;;;5044649;28;20233;-62
2023/07/17 11:23:55;;;;;;;5.13;3.03;;;;;;;;;;5040595;28;20658;-64
2023/07/17 11:26:24;;;;;;;4.70;2.85;;;;;;;;;;5040741;28;20245;-64
2023/07/17 11:28:52;;;;;;;7.33;3.40;;;;;;;;;;5040841;28;20235;-64
2023/07/17 11:31:21;;;;;;;3.83;3.00;;;;;;;;;;5040696;28;20236;-64
2023/07/17 11:33:56;;;;;;;4.20;3.07;;;;;;;;;;5040378;28;20285;-63
2023/07/17 11:36:25;;;;;;;5.33;2.77;;;;;;;;;;5040499;28;20211;-64
2023/07/17 11:38:56;;;;;;;6.43;2.77;;;;;;;;;;5040360;28;20320;-63
2023/07/17 11:41:25;;;;;;;7.37;3.20;;;;;;;;;;5059587;28;20251;-71
2023/07/17 11:43:56;;;;;;;6.87;3.17;;;;;;;;;;5047443;28;20588;-71
2023/07/17 11:46:24;;;;;;;5.30;3.00;;;;;;;;;;5046415;28;20211;-71
2023/07/17 11:48:53;;;;;;;4.87;3.00;;;;;;;;;;5053409;28;20206;-71
2023/07/17 11:51:26;;;;;;;5.03;3.07;;;;;;;;;;5054042;28;20224;-67
2023/07/17 11:53:54;;;;;;;3.80;2.80;;;;;;;;;;5061676;28;20202;-67
2023/07/17 11:56:32;;;;;;;6.10;2.83;;;;;;;;;;5067072;28;20213;-66
2023/07/17 11:59:00;;;;;;;4.53;2.83;;;;;;;;;;5045642;28;20257;-68
2023/07/17 12:01:28;;;;;;;9.37;3.30;;;;;;;;;;5049695;28;20313;-69
2023/07/17 12:03:56;;;;;;;4.80;2.80;;;;;;;;;;5039995;28;20211;-68
2023/07/17 12:06:24;;;;;;;5.63;2.87;;;;;;;;;;5039736;28;20218;-69
2023/07/17 12:08:53;;;;;;;4.27;3.43;;;;;;;;;;5039624;28;20200;-68
2023/07/17 12:11:21;;;;;;;5.60;2.87;;;;;;;;;;5062917;28;20302;-70
2023/07/17 12:13:48;;;;;;;5.70;3.10;;;;;;;;;;5046946;28;20290;-70
2023/07/17 12:16:16;;;;;;;6.67;4.00;;;;;;;;;;5047975;28;20203;-70
2023/07/17 12:18:44;;;;;;;8.03;2.90;;;;;;;;;;5046355;28;20222;-70
2023/07/17 12:21:12;;;;;;;5.27;2.80;;;;;;;;;;5046039;28;20233;-70
2023/07/17 12:23:40;;;;;;;4.03;2.77;;;;;;;;;;5058684;28;20294;-70
2023/07/17 12:26:09;;;;;;;5.57;3.17;;;;;;;;;;5059806;28;20221;-68
2023/07/17 12:28:37;;;;;;;7.25;3.15;;;;;;;;;;5065016;28;20232;-68
2023/07/17 12:31:04;;;;;;;6.00;3.25;;;;;;;;;;5050896;28;20314;-64
2023/07/17 12:33:32;;;;;;;5.85;3.25;;;;;;;;;;5043201;28;20233;-64
2023/07/17 12:36:00;;;;;;;5.25;3.58;;;;;;;;;;5067736;28;20200;-70
2023/07/17 12:38:28;;;;;;;6.70;3.05;;;;;;;;;;5062698;28;20291;-72
2023/07/17 12:40:55;;;;;;;5.60;3.15;;;;;;;;;;5054454;28;20233;-72
2023/07/17 12:43:24;;;;;;;4.53;2.88;;;;;;;;;;5068014;28;20655;-72
2023/07/17 12:45:52;;;;;;;6.55;3.30;;;;;;;;;;5062369;28;20205;-72
2023/07/17 12:48:20;;;;;;;3.75;2.88;;;;;;;;;;5064241;28;20290;-71
2023/07/17 12:50:48;;;;;;;4.65;2.88;;;;;;;;;;5053448;28;20320;-71
2023/07/17 12:53:18;;;;;;;5.90;3.08;;;;;;;;;;5038991;28;20204;-72
2023/07/17 12:55:46;;;;;;;5.10;3.13;;;;;;;;;;5058941;28;20209;-72
2023/07/17 12:58:18;;;;;;;5.18;3.47;;;;;;;;;;5053142;28;20210;-72
2023/07/17 13:00:47;;;;;;;5.28;3.10;;;;;;;;;;5043702;28;20706;-71
2023/07/17 13:03:15;;;;;;;9.88;3.80;;;;;;;;;;5047123;28;20674;-73
2023/07/17 13:05:42;;;;;;;4.75;2.72;;;;;;;;;;5038754;28;20209;-72
2023/07/17 13:08:10;;;;;;;6.93;3.10;;;;;;;;;;5038450;28;20210;-72
2023/07/17 13:10:38;;;;;;;4.55;3.13;;;;;;;;;;5051010;28;20221;-72
2023/07/17 13:13:06;;;;;;;4.18;3.00;;;;;;;;;;5039244;28;20212;-72
2023/07/17 13:15:33;;;;;;;4.47;3.33;;;;;;;;;;5038682;28;20210;-72
2023/07/17 13:18:03;;;;;;;5.90;2.78;;;;;;;;;;5042284;28;20297;-73
2023/07/17 13:20:30;;;;;;;4.72;3.00;;;;;;;;;;5038470;28;20245;-73
2023/07/17 13:22:58;;;;;;;5.30;3.28;;;;;;;;;;5044223;28;20647;-73
2023/07/17 13:25:26;;;;;;;5.50;3.63;;;;;;;;;;5057522;28;20256;-73
2023/07/17 13:27:54;;;;;;;5.03;2.80;;;;;;;;;;5057879;28;20212;-73
2023/07/17 13:30:22;;;;;;;6.60;3.00;;;;;;;;;;5057372;28;20228;-73
2023/07/17 13:32:49;;;;;;;6.47;3.33;;;;;;;;;;5037971;28;20287;-73
2023/07/17 13:35:19;;;;;;;5.97;3.13;;;;;;;;;;5037965;28;20215;-73
2023/07/17 13:37:46;;;;;;;4.93;3.47;;;;;;;;;;5038136;28;20246;-74
2023/07/17 13:40:14;;;;;;;5.40;2.63;;;;;;;;;;5053568;28;20226;-74
2023/07/17 13:42:42;;;;;;;4.22;3.03;;;;;;;;;;5049821;28;20257;-73
2023/07/17 13:45:10;;;;;;;4.43;3.10;;;;;;;;;;5043432;28;20216;-74
2023/07/17 13:47:38;;;;;;;5.70;2.85;;;;;;;;;;5037790;28;20203;-74
2023/07/17 13:50:07;;;;;;;4.75;3.05;;;;;;;;;;5037726;28;20230;-74
2023/07/17 13:52:36;;;;;;;4.93;2.83;;;;;;;;;;5037723;28;20208;-74
2023/07/17 13:55:04;;;;;;;5.55;3.00;;;;;;;;;;5037737;28;20210;-74
2023/07/17 13:57:32;;;;;;;3.08;2.67;;;;;;;;;;5047053;28;20234;-74
2023/07/17 14:00:02;;;;;;;7.45;3.28;;;;;;;;;;5047459;28;20314;-75
2023/07/17 14:02:31;;;;;;;3.35;2.83;;;;;;;;;;5047287;28;20207;-73
2023/07/17 14:04:59;;;;;;;9.70;4.70;;;;;;;;;;5052628;28;20257;-73
2023/07/17 14:07:27;;;;;;;4.20;3.15;;;;;;;;;;5037807;28;20206;-73
2023/07/17 14:09:56;;;;;;;3.30;2.83;;;;;;;;;;5043976;28;20233;-73
2023/07/17 14:12:24;;;;;;;4.57;2.80;;;;;;;;;;5044124;28;20295;-72
2023/07/17 14:14:52;;;;;;;6.93;2.80;;;;;;;;;;5037566;28;20577;-72
2023/07/17 14:17:20;;;;;;;4.60;3.72;;;;;;;;;;5037466;28;20217;-74
2023/07/17 14:19:48;;;;;;;9.43;5.45;;;;;;;;;;5037401;28;20280;-73
2023/07/17 14:22:15;;;;;;;9.23;4.95;;;;;;;;;;5037391;28;20219;-76
2023/07/17 14:24:43;;;;;;;6.15;3.80;;;;;;;;;;5037275;28;20242;-72
2023/07/17 14:27:12;;;;;;;5.65;4.00;;;;;;;;;;5051903;28;20564;-72
2023/07/17 14:29:42;;;;;;;3.60;2.90;;;;;;;;;;5037643;28;20204;-72
2023/07/17 14:32:10;;;;;;;3.08;2.70;;;;;;;;;;5045543;28;20207;-72
2023/07/17 14:34:39;;;;;;;3.75;2.97;;;;;;;;;;5037592;28;20672;-72
2023/07/17 14:37:07;;;;;;;3.63;2.58;;;;;;;;;;5051511;28;20203;-71
2023/07/17 14:39:34;;;;;;;4.50;3.20;;;;;;;;;;5057123;28;20218;-71
2023/07/17 14:42:03;;;;;;;8.98;3.40;;;;;;;;;;5052734;28;20215;-72
2023/07/17 14:44:32;;;;;;;6.20;3.47;;;;;;;;;;5045805;28;20566;-72
2023/07/17 14:47:00;;;;;;;5.95;2.95;;;;;;;;;;5037448;28;20222;-72
2023/07/17 14:49:28;;;;;;;7.70;3.05;;;;;;;;;;5037386;28;20235;-72
2023/07/17 14:51:55;;;;;;;4.85;3.30;;;;;;;;;;5058123;28;20198;-70